Terminal Aerodrome Forecast
Issued by NWS

Home | Current Version | Previous Version | Text Only | Print | Product List | Glossary On
Versions: 1 2 3 4 5 6 7 8 9 10 11 12 13 14 15 16 17 18 19 20
000
FTUS43 KGRR 030500
TAFAZO
TAF
KAZO 030540Z 0306/0406 17005KT P6SM OVC100
     FM031400 15012G21KT 2SM -SN BR OVC015
     FM031800 18015G23KT 1SM -FZRASN BR OVC006
     FM032200 21014G23KT 3/4SM -FZRASN OVC004=

USA.gov is the U.S. government's official web portal to all federal, state and local government web resources and services.